sensor_id;sensor_type;location;lat;lon;timestamp;P1;durP1;ratioP1;P2;durP2;ratioP2
20637;SDS011;10478;49.004;8.470;2023-01-24T00:02:14;17.33;;;7.97;;
20637;SDS011;10478;49.004;8.470;2023-01-24T00:04:39;24.55;;;9.45;;
20637;SDS011;10478;49.004;8.470;2023-01-24T00:07:04;16.88;;;8.80;;
20637;SDS011;10478;49.004;8.470;2023-01-24T00:09:30;21.42;;;9.68;;
20637;SDS011;10478;49.004;8.470;2023-01-24T00:11:55;16.27;;;8.43;;
20637;SDS011;10478;49.004;8.470;2023-01-24T00:14:20;19.33;;;8.85;;
20637;SDS011;10478;49.004;8.470;2023-01-24T00:16:46;15.73;;;8.55;;
20637;SDS011;10478;49.004;8.470;2023-01-24T00:19:11;16.48;;;8.07;;
20637;SDS011;10478;49.004;8.470;2023-01-24T00:21:36;15.95;;;8.13;;
20637;SDS011;10478;49.004;8.470;2023-01-24T00:24:02;18.92;;;8.77;;
20637;SDS011;10478;49.004;8.470;2023-01-24T00:26:27;18.40;;;8.88;;
20637;SDS011;10478;49.004;8.470;2023-01-24T00:28:52;15.50;;;8.60;;
20637;SDS011;10478;49.004;8.470;2023-01-24T00:31:17;16.77;;;8.25;;
20637;SDS011;10478;49.004;8.470;2023-01-24T00:33:43;17.95;;;7.75;;
20637;SDS011;10478;49.004;8.470;2023-01-24T00:36:08;17.10;;;8.02;;
20637;SDS011;10478;49.004;8.470;2023-01-24T00:38:34;17.70;;;8.55;;
20637;SDS011;10478;49.004;8.470;2023-01-24T00:41:00;19.77;;;8.70;;
20637;SDS011;10478;49.004;8.470;2023-01-24T00:43:25;18.90;;;8.38;;
20637;SDS011;10478;49.004;8.470;2023-01-24T00:45:53;17.83;;;8.45;;
20637;SDS011;10478;49.004;8.470;2023-01-24T00:48:19;16.40;;;7.63;;
20637;SDS011;10478;49.004;8.470;2023-01-24T00:50:44;13.88;;;6.97;;
20637;SDS011;10478;49.004;8.470;2023-01-24T00:53:09;12.90;;;7.10;;
20637;SDS011;10478;49.004;8.470;2023-01-24T00:55:39;18.77;;;8.65;;
20637;SDS011;10478;49.004;8.470;2023-01-24T00:58:06;17.60;;;8.18;;
20637;SDS011;10478;49.004;8.470;2023-01-24T01:00:31;14.35;;;7.85;;
20637;SDS011;10478;49.004;8.470;2023-01-24T01:02:57;14.05;;;8.00;;
20637;SDS011;10478;49.004;8.470;2023-01-24T01:05:22;19.50;;;8.85;;
20637;SDS011;10478;49.004;8.470;2023-01-24T01:07:47;15.35;;;7.97;;
20637;SDS011;10478;49.004;8.470;2023-01-24T01:10:12;18.65;;;9.15;;
20637;SDS011;10478;49.004;8.470;2023-01-24T01:12:38;12.98;;;7.22;;
20637;SDS011;10478;49.004;8.470;2023-01-24T01:15:03;15.18;;;7.25;;
20637;SDS011;10478;49.004;8.470;2023-01-24T01:17:29;16.52;;;8.23;;
20637;SDS011;10478;49.004;8.470;2023-01-24T01:19:54;13.90;;;7.22;;
20637;SDS011;10478;49.004;8.470;2023-01-24T01:22:20;17.02;;;8.05;;
20637;SDS011;10478;49.004;8.470;2023-01-24T01:24:46;16.88;;;8.05;;
20637;SDS011;10478;49.004;8.470;2023-01-24T01:27:11;17.55;;;8.35;;
20637;SDS011;10478;49.004;8.470;2023-01-24T01:29:36;16.17;;;7.70;;
20637;SDS011;10478;49.004;8.470;2023-01-24T01:32:02;16.52;;;7.88;;
20637;SDS011;10478;49.004;8.470;2023-01-24T01:34:27;13.57;;;6.80;;
20637;SDS011;10478;49.004;8.470;2023-01-24T01:36:53;17.60;;;8.43;;
20637;SDS011;10478;49.004;8.470;2023-01-24T01:39:18;14.65;;;7.57;;
20637;SDS011;10478;49.004;8.470;2023-01-24T01:41:43;16.05;;;7.78;;
20637;SDS011;10478;49.004;8.470;2023-01-24T01:44:18;16.95;;;7.72;;
20637;SDS011;10478;49.004;8.470;2023-01-24T01:47:21;16.15;;;7.75;;
20637;SDS011;10478;49.004;8.470;2023-01-24T01:49:54;15.07;;;7.68;;
20637;SDS011;10478;49.004;8.470;2023-01-24T01:52:41;13.70;;;8.02;;
20637;SDS011;10478;49.004;8.470;2023-01-24T01:55:14;14.48;;;7.72;;
20637;SDS011;10478;49.004;8.470;2023-01-24T01:57:41;18.73;;;8.70;;
20637;SDS011;10478;49.004;8.470;2023-01-24T02:00:12;15.18;;;7.60;;
20637;SDS011;10478;49.004;8.470;2023-01-24T02:06:05;15.20;;;7.85;;
20637;SDS011;10478;49.004;8.470;2023-01-24T02:08:32;16.15;;;8.05;;
20637;SDS011;10478;49.004;8.470;2023-01-24T02:10:58;15.20;;;7.88;;
20637;SDS011;10478;49.004;8.470;2023-01-24T02:13:44;15.23;;;8.55;;
20637;SDS011;10478;49.004;8.470;2023-01-24T02:16:10;13.85;;;7.28;;
20637;SDS011;10478;49.004;8.470;2023-01-24T02:18:37;16.20;;;7.75;;
20637;SDS011;10478;49.004;8.470;2023-01-24T02:21:04;18.90;;;7.93;;
20637;SDS011;10478;49.004;8.470;2023-01-24T02:26:13;14.60;;;7.97;;
20637;SDS011;10478;49.004;8.470;2023-01-24T02:28:40;16.15;;;7.47;;
20637;SDS011;10478;49.004;8.470;2023-01-24T02:31:10;18.83;;;7.25;;
20637;SDS011;10478;49.004;8.470;2023-01-24T02:33:35;21.25;;;9.27;;
20637;SDS011;10478;49.004;8.470;2023-01-24T02:39:13;17.13;;;8.90;;
20637;SDS011;10478;49.004;8.470;2023-01-24T02:49:06;21.08;;;8.77;;
20637;SDS011;10478;49.004;8.470;2023-01-24T02:51:32;16.67;;;8.48;;
20637;SDS011;10478;49.004;8.470;2023-01-24T02:54:16;18.58;;;8.52;;
20637;SDS011;10478;49.004;8.470;2023-01-24T02:56:42;16.38;;;9.15;;
20637;SDS011;10478;49.004;8.470;2023-01-24T02:59:26;18.77;;;8.38;;
20637;SDS011;10478;49.004;8.470;2023-01-24T03:01:51;17.83;;;8.48;;
20637;SDS011;10478;49.004;8.470;2023-01-24T03:04:17;17.77;;;8.95;;
20637;SDS011;10478;49.004;8.470;2023-01-24T03:06:42;18.45;;;8.65;;
20637;SDS011;10478;49.004;8.470;2023-01-24T03:09:08;18.88;;;8.95;;
20637;SDS011;10478;49.004;8.470;2023-01-24T03:11:44;17.30;;;9.13;;
20637;SDS011;10478;49.004;8.470;2023-01-24T03:14:10;14.10;;;7.88;;
20637;SDS011;10478;49.004;8.470;2023-01-24T03:16:54;18.85;;;9.55;;
20637;SDS011;10478;49.004;8.470;2023-01-24T03:19:38;19.05;;;8.95;;
20637;SDS011;10478;49.004;8.470;2023-01-24T03:22:22;17.80;;;8.40;;
20637;SDS011;10478;49.004;8.470;2023-01-24T03:25:07;15.82;;;8.52;;
20637;SDS011;10478;49.004;8.470;2023-01-24T03:27:51;21.20;;;9.18;;
20637;SDS011;10478;49.004;8.470;2023-01-24T03:30:35;17.25;;;9.35;;
20637;SDS011;10478;49.004;8.470;2023-01-24T03:33:19;20.08;;;8.00;;
20637;SDS011;10478;49.004;8.470;2023-01-24T03:36:03;17.25;;;8.40;;
20637;SDS011;10478;49.004;8.470;2023-01-24T03:38:31;18.80;;;9.57;;
20637;SDS011;10478;49.004;8.470;2023-01-24T03:41:16;19.92;;;8.20;;
20637;SDS011;10478;49.004;8.470;2023-01-24T03:43:41;14.35;;;8.18;;
20637;SDS011;10478;49.004;8.470;2023-01-24T03:46:08;18.38;;;8.65;;
20637;SDS011;10478;49.004;8.470;2023-01-24T03:48:33;16.63;;;8.25;;
20637;SDS011;10478;49.004;8.470;2023-01-24T03:51:02;19.05;;;7.95;;
20637;SDS011;10478;49.004;8.470;2023-01-24T03:53:46;16.13;;;8.48;;
20637;SDS011;10478;49.004;8.470;2023-01-24T03:56:12;20.33;;;8.13;;
20637;SDS011;10478;49.004;8.470;2023-01-24T03:58:37;18.05;;;8.88;;
20637;SDS011;10478;49.004;8.470;2023-01-24T04:01:02;19.30;;;9.30;;
20637;SDS011;10478;49.004;8.470;2023-01-24T04:03:28;17.58;;;7.72;;
20637;SDS011;10478;49.004;8.470;2023-01-24T04:05:53;21.05;;;8.95;;
20637;SDS011;10478;49.004;8.470;2023-01-24T04:08:18;17.17;;;8.15;;
20637;SDS011;10478;49.004;8.470;2023-01-24T04:10:44;20.95;;;8.68;;
20637;SDS011;10478;49.004;8.470;2023-01-24T04:13:10;16.88;;;8.10;;
20637;SDS011;10478;49.004;8.470;2023-01-24T04:15:36;20.13;;;8.35;;
20637;SDS011;10478;49.004;8.470;2023-01-24T04:18:02;18.98;;;8.13;;
20637;SDS011;10478;49.004;8.470;2023-01-24T04:20:29;17.27;;;8.65;;
20637;SDS011;10478;49.004;8.470;2023-01-24T04:22:56;19.88;;;8.80;;
20637;SDS011;10478;49.004;8.470;2023-01-24T04:25:21;21.35;;;9.52;;
20637;SDS011;10478;49.004;8.470;2023-01-24T04:27:47;22.80;;;9.65;;
20637;SDS011;10478;49.004;8.470;2023-01-24T04:30:13;18.77;;;8.98;;
20637;SDS011;10478;49.004;8.470;2023-01-24T04:32:40;21.25;;;9.52;;
20637;SDS011;10478;49.004;8.470;2023-01-24T04:35:06;18.08;;;8.40;;
20637;SDS011;10478;49.004;8.470;2023-01-24T04:37:32;17.13;;;7.75;;
20637;SDS011;10478;49.004;8.470;2023-01-24T04:39:58;18.15;;;8.57;;
20637;SDS011;10478;49.004;8.470;2023-01-24T04:42:23;21.20;;;8.60;;
20637;SDS011;10478;49.004;8.470;2023-01-24T04:44:49;21.88;;;9.57;;
20637;SDS011;10478;49.004;8.470;2023-01-24T04:47:14;19.55;;;8.27;;
20637;SDS011;10478;49.004;8.470;2023-01-24T04:49:39;21.95;;;9.65;;
20637;SDS011;10478;49.004;8.470;2023-01-24T04:52:07;19.98;;;8.80;;
20637;SDS011;10478;49.004;8.470;2023-01-24T04:54:34;22.33;;;8.48;;
20637;SDS011;10478;49.004;8.470;2023-01-24T04:56:59;23.95;;;9.55;;
20637;SDS011;10478;49.004;8.470;2023-01-24T04:59:25;22.75;;;9.73;;
20637;SDS011;10478;49.004;8.470;2023-01-24T05:01:50;16.92;;;8.48;;
20637;SDS011;10478;49.004;8.470;2023-01-24T05:04:15;19.42;;;9.05;;
20637;SDS011;10478;49.004;8.470;2023-01-24T05:06:41;18.75;;;9.45;;
20637;SDS011;10478;49.004;8.470;2023-01-24T05:09:06;18.23;;;8.15;;
20637;SDS011;10478;49.004;8.470;2023-01-24T05:11:31;20.92;;;9.38;;
20637;SDS011;10478;49.004;8.470;2023-01-24T05:13:57;19.92;;;8.82;;
20637;SDS011;10478;49.004;8.470;2023-01-24T05:16:23;21.88;;;8.88;;
20637;SDS011;10478;49.004;8.470;2023-01-24T05:18:48;19.75;;;8.95;;
20637;SDS011;10478;49.004;8.470;2023-01-24T05:21:14;16.08;;;7.80;;
20637;SDS011;10478;49.004;8.470;2023-01-24T05:23:41;17.15;;;8.80;;
20637;SDS011;10478;49.004;8.470;2023-01-24T05:26:07;17.60;;;8.82;;
20637;SDS011;10478;49.004;8.470;2023-01-24T05:28:33;19.70;;;9.48;;
20637;SDS011;10478;49.004;8.470;2023-01-24T05:31:03;19.70;;;9.52;;
20637;SDS011;10478;49.004;8.470;2023-01-24T05:33:31;15.73;;;8.45;;
20637;SDS011;10478;49.004;8.470;2023-01-24T05:35:57;22.48;;;9.57;;
20637;SDS011;10478;49.004;8.470;2023-01-24T05:38:32;16.98;;;8.60;;
20637;SDS011;10478;49.004;8.470;2023-01-24T05:41:04;21.65;;;9.10;;
20637;SDS011;10478;49.004;8.470;2023-01-24T05:43:31;17.20;;;8.52;;
20637;SDS011;10478;49.004;8.470;2023-01-24T05:46:00;19.23;;;8.73;;
20637;SDS011;10478;49.004;8.470;2023-01-24T05:48:27;18.88;;;8.95;;
20637;SDS011;10478;49.004;8.470;2023-01-24T05:51:00;17.73;;;8.75;;
20637;SDS011;10478;49.004;8.470;2023-01-24T05:53:29;18.85;;;10.18;;
20637;SDS011;10478;49.004;8.470;2023-01-24T05:55:56;20.15;;;8.38;;
20637;SDS011;10478;49.004;8.470;2023-01-24T05:58:22;20.08;;;9.00;;
20637;SDS011;10478;49.004;8.470;2023-01-24T06:00:48;21.67;;;9.50;;
20637;SDS011;10478;49.004;8.470;2023-01-24T06:03:14;21.33;;;9.95;;
20637;SDS011;10478;49.004;8.470;2023-01-24T06:05:39;15.52;;;7.50;;
20637;SDS011;10478;49.004;8.470;2023-01-24T06:08:04;22.95;;;9.80;;
20637;SDS011;10478;49.004;8.470;2023-01-24T06:10:30;18.25;;;8.43;;
20637;SDS011;10478;49.004;8.470;2023-01-24T06:12:55;20.92;;;9.75;;
20637;SDS011;10478;49.004;8.470;2023-01-24T06:15:20;17.45;;;9.02;;
20637;SDS011;10478;49.004;8.470;2023-01-24T06:17:46;22.48;;;9.50;;
20637;SDS011;10478;49.004;8.470;2023-01-24T06:20:11;19.42;;;8.57;;
20637;SDS011;10478;49.004;8.470;2023-01-24T06:22:44;17.92;;;9.13;;
20637;SDS011;10478;49.004;8.470;2023-01-24T06:25:16;22.02;;;10.00;;
20637;SDS011;10478;49.004;8.470;2023-01-24T06:27:45;19.85;;;9.98;;
20637;SDS011;10478;49.004;8.470;2023-01-24T06:30:11;19.60;;;8.10;;
20637;SDS011;10478;49.004;8.470;2023-01-24T06:32:49;21.70;;;9.20;;
20637;SDS011;10478;49.004;8.470;2023-01-24T06:35:42;23.20;;;9.60;;
20637;SDS011;10478;49.004;8.470;2023-01-24T06:38:19;20.08;;;9.05;;
20637;SDS011;10478;49.004;8.470;2023-01-24T07:52:16;22.58;;;9.88;;
20637;SDS011;10478;49.004;8.470;2023-01-24T07:54:41;23.45;;;9.80;;
20637;SDS011;10478;49.004;8.470;2023-01-24T07:57:06;24.08;;;10.00;;
20637;SDS011;10478;49.004;8.470;2023-01-24T07:59:33;24.05;;;9.90;;
20637;SDS011;10478;49.004;8.470;2023-01-24T08:01:58;19.77;;;9.55;;
20637;SDS011;10478;49.004;8.470;2023-01-24T08:04:23;19.35;;;9.90;;
20637;SDS011;10478;49.004;8.470;2023-01-24T08:06:49;20.95;;;10.07;;
20637;SDS011;10478;49.004;8.470;2023-01-24T08:09:33;24.90;;;11.00;;
20637;SDS011;10478;49.004;8.470;2023-01-24T08:11:58;22.17;;;9.75;;
20637;SDS011;10478;49.004;8.470;2023-01-24T08:14:24;23.67;;;9.88;;
20637;SDS011;10478;49.004;8.470;2023-01-24T08:16:49;20.00;;;10.20;;
20637;SDS011;10478;49.004;8.470;2023-01-24T08:19:14;20.25;;;9.45;;
20637;SDS011;10478;49.004;8.470;2023-01-24T08:21:40;22.98;;;11.18;;
20637;SDS011;10478;49.004;8.470;2023-01-24T08:24:06;19.65;;;10.07;;
20637;SDS011;10478;49.004;8.470;2023-01-24T08:26:31;23.92;;;9.68;;
20637;SDS011;10478;49.004;8.470;2023-01-24T08:28:56;20.40;;;8.80;;
20637;SDS011;10478;49.004;8.470;2023-01-24T08:31:22;17.80;;;9.80;;
20637;SDS011;10478;49.004;8.470;2023-01-24T08:33:47;24.55;;;10.63;;
20637;SDS011;10478;49.004;8.470;2023-01-24T08:36:12;19.90;;;9.60;;
20637;SDS011;10478;49.004;8.470;2023-01-24T08:38:38;21.95;;;10.48;;
20637;SDS011;10478;49.004;8.470;2023-01-24T08:41:03;23.50;;;10.05;;
20637;SDS011;10478;49.004;8.470;2023-01-24T08:43:29;22.15;;;9.27;;
20637;SDS011;10478;49.004;8.470;2023-01-24T08:45:55;19.08;;;9.05;;
20637;SDS011;10478;49.004;8.470;2023-01-24T08:48:20;21.13;;;9.27;;
20637;SDS011;10478;49.004;8.470;2023-01-24T08:50:45;22.73;;;9.70;;
20637;SDS011;10478;49.004;8.470;2023-01-24T08:53:11;21.48;;;10.13;;
20637;SDS011;10478;49.004;8.470;2023-01-24T08:55:36;21.20;;;10.18;;
20637;SDS011;10478;49.004;8.470;2023-01-24T08:58:02;23.55;;;10.15;;
20637;SDS011;10478;49.004;8.470;2023-01-24T09:00:29;20.95;;;10.05;;
20637;SDS011;10478;49.004;8.470;2023-01-24T09:02:54;16.58;;;8.00;;
20637;SDS011;10478;49.004;8.470;2023-01-24T09:05:23;22.92;;;9.85;;
20637;SDS011;10478;49.004;8.470;2023-01-24T09:07:49;23.90;;;10.60;;
20637;SDS011;10478;49.004;8.470;2023-01-24T09:10:15;25.80;;;9.82;;
20637;SDS011;10478;49.004;8.470;2023-01-24T09:12:40;27.38;;;11.82;;
20637;SDS011;10478;49.004;8.470;2023-01-24T09:15:06;26.02;;;11.10;;
20637;SDS011;10478;49.004;8.470;2023-01-24T09:17:45;28.40;;;11.82;;
20637;SDS011;10478;49.004;8.470;2023-01-24T09:20:10;27.20;;;11.50;;
20637;SDS011;10478;49.004;8.470;2023-01-24T09:22:36;21.48;;;10.40;;
20637;SDS011;10478;49.004;8.470;2023-01-24T09:25:02;27.02;;;10.63;;
20637;SDS011;10478;49.004;8.470;2023-01-24T09:27:28;18.25;;;9.07;;
20637;SDS011;10478;49.004;8.470;2023-01-24T09:29:53;22.20;;;10.05;;
20637;SDS011;10478;49.004;8.470;2023-01-24T09:32:19;20.10;;;9.38;;
20637;SDS011;10478;49.004;8.470;2023-01-24T09:34:44;20.88;;;10.00;;
20637;SDS011;10478;49.004;8.470;2023-01-24T09:37:18;21.73;;;9.25;;
20637;SDS011;10478;49.004;8.470;2023-01-24T09:39:44;19.02;;;9.27;;
20637;SDS011;10478;49.004;8.470;2023-01-24T09:42:12;17.45;;;9.15;;
20637;SDS011;10478;49.004;8.470;2023-01-24T09:50:16;26.63;;;10.30;;
20637;SDS011;10478;49.004;8.470;2023-01-24T09:52:48;24.23;;;9.65;;
20637;SDS011;10478;49.004;8.470;2023-01-24T10:00:43;20.92;;;9.90;;
20637;SDS011;10478;49.004;8.470;2023-01-24T10:03:17;34.95;;;10.32;;
20637;SDS011;10478;49.004;8.470;2023-01-24T11:15:33;21.73;;;9.57;;
20637;SDS011;10478;49.004;8.470;2023-01-24T11:20:32;17.10;;;8.27;;
20637;SDS011;10478;49.004;8.470;2023-01-24T11:23:04;19.70;;;9.48;;
20637;SDS011;10478;49.004;8.470;2023-01-24T11:25:53;20.23;;;8.68;;
20637;SDS011;10478;49.004;8.470;2023-01-24T11:28:23;15.32;;;7.90;;
20637;SDS011;10478;49.004;8.470;2023-01-24T11:31:24;17.48;;;8.60;;
20637;SDS011;10478;49.004;8.470;2023-01-24T11:37:18;19.48;;;9.20;;
20637;SDS011;10478;49.004;8.470;2023-01-24T11:45:25;14.43;;;6.45;;
20637;SDS011;10478;49.004;8.470;2023-01-24T12:20:31;12.93;;;7.47;;
20637;SDS011;10478;49.004;8.470;2023-01-24T12:26:54;24.73;;;9.63;;
20637;SDS011;10478;49.004;8.470;2023-01-24T12:29:39;15.65;;;9.52;;
20637;SDS011;10478;49.004;8.470;2023-01-24T12:32:22;14.75;;;7.30;;
20637;SDS011;10478;49.004;8.470;2023-01-24T12:40:35;13.68;;;6.22;;
20637;SDS011;10478;49.004;8.470;2023-01-24T13:54:19;13.35;;;6.65;;
20637;SDS011;10478;49.004;8.470;2023-01-24T13:57:09;14.98;;;7.10;;
20637;SDS011;10478;49.004;8.470;2023-01-24T14:00:00;17.30;;;7.25;;
20637;SDS011;10478;49.004;8.470;2023-01-24T14:02:30;14.65;;;6.93;;
20637;SDS011;10478;49.004;8.470;2023-01-24T14:04:57;13.82;;;7.03;;
20637;SDS011;10478;49.004;8.470;2023-01-24T14:07:27;15.55;;;7.03;;
20637;SDS011;10478;49.004;8.470;2023-01-24T14:10:04;14.63;;;6.95;;
20637;SDS011;10478;49.004;8.470;2023-01-24T14:12:31;17.90;;;7.07;;
20637;SDS011;10478;49.004;8.470;2023-01-24T14:15:03;13.27;;;6.95;;
20637;SDS011;10478;49.004;8.470;2023-01-24T14:20:23;14.05;;;7.60;;
20637;SDS011;10478;49.004;8.470;2023-01-24T14:22:57;12.05;;;5.63;;
20637;SDS011;10478;49.004;8.470;2023-01-24T14:25:32;15.02;;;7.50;;
20637;SDS011;10478;49.004;8.470;2023-01-24T14:28:15;11.52;;;6.50;;
20637;SDS011;10478;49.004;8.470;2023-01-24T14:30:56;14.98;;;7.65;;
20637;SDS011;10478;49.004;8.470;2023-01-24T14:33:27;14.68;;;6.38;;
20637;SDS011;10478;49.004;8.470;2023-01-24T14:35:59;15.68;;;6.90;;
20637;SDS011;10478;49.004;8.470;2023-01-24T14:38:44;13.82;;;7.18;;
20637;SDS011;10478;49.004;8.470;2023-01-24T14:41:15;16.15;;;7.65;;
20637;SDS011;10478;49.004;8.470;2023-01-24T14:43:44;14.00;;;6.40;;
20637;SDS011;10478;49.004;8.470;2023-01-24T14:46:16;16.60;;;6.30;;
20637;SDS011;10478;49.004;8.470;2023-01-24T14:51:13;12.03;;;6.73;;
20637;SDS011;10478;49.004;8.470;2023-01-24T14:53:45;14.50;;;7.60;;
20637;SDS011;10478;49.004;8.470;2023-01-24T14:56:12;13.05;;;6.40;;
20637;SDS011;10478;49.004;8.470;2023-01-24T14:58:39;14.10;;;7.35;;
20637;SDS011;10478;49.004;8.470;2023-01-24T15:01:19;15.77;;;7.82;;
20637;SDS011;10478;49.004;8.470;2023-01-24T15:03:47;14.50;;;7.50;;
20637;SDS011;10478;49.004;8.470;2023-01-24T15:06:16;21.73;;;11.45;;
20637;SDS011;10478;49.004;8.470;2023-01-24T15:08:42;15.57;;;7.57;;
20637;SDS011;10478;49.004;8.470;2023-01-24T15:11:18;14.07;;;7.32;;
20637;SDS011;10478;49.004;8.470;2023-01-24T15:13:49;15.38;;;7.53;;
20637;SDS011;10478;49.004;8.470;2023-01-24T15:16:19;18.98;;;8.75;;
20637;SDS011;10478;49.004;8.470;2023-01-24T15:18:50;18.05;;;7.72;;
20637;SDS011;10478;49.004;8.470;2023-01-24T15:21:19;18.80;;;8.07;;
20637;SDS011;10478;49.004;8.470;2023-01-24T15:23:58;14.82;;;7.43;;
20637;SDS011;10478;49.004;8.470;2023-01-24T15:28:58;20.80;;;7.13;;
20637;SDS011;10478;49.004;8.470;2023-01-24T16:15:53;17.00;;;7.88;;
20637;SDS011;10478;49.004;8.470;2023-01-24T16:18:43;14.30;;;6.85;;
20637;SDS011;10478;49.004;8.470;2023-01-24T16:21:09;16.58;;;6.80;;
20637;SDS011;10478;49.004;8.470;2023-01-24T17:03:15;16.02;;;9.32;;
20637;SDS011;10478;49.004;8.470;2023-01-24T17:05:41;15.90;;;7.55;;
20637;SDS011;10478;49.004;8.470;2023-01-24T17:08:08;15.30;;;7.10;;
20637;SDS011;10478;49.004;8.470;2023-01-24T17:10:35;11.90;;;6.50;;
20637;SDS011;10478;49.004;8.470;2023-01-24T17:13:01;15.32;;;8.05;;
20637;SDS011;10478;49.004;8.470;2023-01-24T17:15:28;14.40;;;7.75;;
20637;SDS011;10478;49.004;8.470;2023-01-24T17:17:54;15.77;;;7.75;;
20637;SDS011;10478;49.004;8.470;2023-01-24T17:20:19;15.80;;;7.25;;
20637;SDS011;10478;49.004;8.470;2023-01-24T17:22:44;15.90;;;7.45;;
20637;SDS011;10478;49.004;8.470;2023-01-24T17:25:10;15.35;;;7.95;;
20637;SDS011;10478;49.004;8.470;2023-01-24T17:27:35;21.08;;;9.05;;
20637;SDS011;10478;49.004;8.470;2023-01-24T17:30:01;19.75;;;7.50;;
20637;SDS011;10478;49.004;8.470;2023-01-24T17:32:26;14.43;;;7.38;;
20637;SDS011;10478;49.004;8.470;2023-01-24T17:34:52;15.20;;;7.50;;
20637;SDS011;10478;49.004;8.470;2023-01-24T17:37:17;14.90;;;7.70;;
20637;SDS011;10478;49.004;8.470;2023-01-24T17:39:43;15.20;;;7.75;;
20637;SDS011;10478;49.004;8.470;2023-01-24T17:42:08;20.27;;;9.35;;
20637;SDS011;10478;49.004;8.470;2023-01-24T17:44:34;18.20;;;8.65;;
20637;SDS011;10478;49.004;8.470;2023-01-24T17:46:59;17.00;;;8.00;;
20637;SDS011;10478;49.004;8.470;2023-01-24T17:49:24;17.15;;;7.88;;
20637;SDS011;10478;49.004;8.470;2023-01-24T17:51:49;14.90;;;7.40;;
20637;SDS011;10478;49.004;8.470;2023-01-24T17:54:15;21.23;;;9.25;;
20637;SDS011;10478;49.004;8.470;2023-01-24T17:56:41;16.95;;;8.50;;
20637;SDS011;10478;49.004;8.470;2023-01-24T17:59:07;18.50;;;8.30;;
20637;SDS011;10478;49.004;8.470;2023-01-24T18:01:32;18.65;;;8.52;;
20637;SDS011;10478;49.004;8.470;2023-01-24T18:03:58;16.77;;;8.52;;
20637;SDS011;10478;49.004;8.470;2023-01-24T18:06:23;17.25;;;8.40;;
20637;SDS011;10478;49.004;8.470;2023-01-24T18:08:49;15.43;;;8.07;;
20637;SDS011;10478;49.004;8.470;2023-01-24T18:11:15;24.02;;;10.68;;
20637;SDS011;10478;49.004;8.470;2023-01-24T18:13:41;18.17;;;8.20;;
20637;SDS011;10478;49.004;8.470;2023-01-24T18:16:08;19.05;;;9.15;;
20637;SDS011;10478;49.004;8.470;2023-01-24T18:18:37;17.95;;;8.75;;
20637;SDS011;10478;49.004;8.470;2023-01-24T18:21:10;21.15;;;9.43;;
20637;SDS011;10478;49.004;8.470;2023-01-24T18:23:40;16.45;;;8.55;;
20637;SDS011;10478;49.004;8.470;2023-01-24T18:26:06;18.70;;;9.13;;
20637;SDS011;10478;49.004;8.470;2023-01-24T18:28:33;20.35;;;10.18;;
20637;SDS011;10478;49.004;8.470;2023-01-24T18:31:06;22.38;;;10.13;;
20637;SDS011;10478;49.004;8.470;2023-01-24T18:33:37;16.83;;;7.75;;
20637;SDS011;10478;49.004;8.470;2023-01-24T18:36:10;19.98;;;8.88;;
20637;SDS011;10478;49.004;8.470;2023-01-24T18:38:38;15.02;;;8.32;;
20637;SDS011;10478;49.004;8.470;2023-01-24T18:41:04;22.00;;;9.52;;
20637;SDS011;10478;49.004;8.470;2023-01-24T18:43:29;20.13;;;10.48;;
20637;SDS011;10478;49.004;8.470;2023-01-24T22:10:11;17.52;;;8.73;;
20637;SDS011;10478;49.004;8.470;2023-01-24T22:12:37;17.88;;;9.10;;
20637;SDS011;10478;49.004;8.470;2023-01-24T22:15:03;17.40;;;8.60;;
20637;SDS011;10478;49.004;8.470;2023-01-24T22:17:29;17.70;;;8.73;;
20637;SDS011;10478;49.004;8.470;2023-01-24T22:19:56;20.98;;;9.52;;
20637;SDS011;10478;49.004;8.470;2023-01-24T22:27:53;22.60;;;9.43;;
20637;SDS011;10478;49.004;8.470;2023-01-24T22:30:23;19.35;;;8.52;;
20637;SDS011;10478;49.004;8.470;2023-01-24T22:32:50;21.90;;;9.50;;
20637;SDS011;10478;49.004;8.470;2023-01-24T22:35:17;23.48;;;10.27;;
20637;SDS011;10478;49.004;8.470;2023-01-24T22:37:44;20.10;;;9.65;;
20637;SDS011;10478;49.004;8.470;2023-01-24T22:40:12;19.83;;;9.35;;
20637;SDS011;10478;49.004;8.470;2023-01-24T22:42:40;25.38;;;10.85;;
20637;SDS011;10478;49.004;8.470;2023-01-24T22:45:05;19.20;;;8.20;;
20637;SDS011;10478;49.004;8.470;2023-01-24T22:47:31;24.65;;;9.43;;
20637;SDS011;10478;49.004;8.470;2023-01-24T22:49:56;19.83;;;10.60;;
20637;SDS011;10478;49.004;8.470;2023-01-24T22:52:21;22.95;;;10.52;;
20637;SDS011;10478;49.004;8.470;2023-01-24T22:54:47;24.02;;;10.55;;
20637;SDS011;10478;49.004;8.470;2023-01-24T22:57:12;18.13;;;9.50;;
20637;SDS011;10478;49.004;8.470;2023-01-24T22:59:37;24.60;;;10.73;;
20637;SDS011;10478;49.004;8.470;2023-01-24T23:02:03;19.92;;;9.75;;
20637;SDS011;10478;49.004;8.470;2023-01-24T23:04:29;18.75;;;9.43;;
20637;SDS011;10478;49.004;8.470;2023-01-24T23:06:54;24.08;;;11.07;;
20637;SDS011;10478;49.004;8.470;2023-01-24T23:09:19;19.20;;;8.75;;
20637;SDS011;10478;49.004;8.470;2023-01-24T23:11:45;22.33;;;10.35;;
20637;SDS011;10478;49.004;8.470;2023-01-24T23:14:11;17.40;;;9.23;;
20637;SDS011;10478;49.004;8.470;2023-01-24T23:17:13;17.15;;;8.95;;
20637;SDS011;10478;49.004;8.470;2023-01-24T23:19:42;21.98;;;10.15;;
20637;SDS011;10478;49.004;8.470;2023-01-24T23:22:29;24.42;;;11.07;;
20637;SDS011;10478;49.004;8.470;2023-01-24T23:24:56;21.27;;;8.98;;
20637;SDS011;10478;49.004;8.470;2023-01-24T23:27:43;21.23;;;9.13;;
20637;SDS011;10478;49.004;8.470;2023-01-24T23:35:22;21.48;;;11.00;;
20637;SDS011;10478;49.004;8.470;2023-01-24T23:37:47;21.25;;;10.10;;
20637;SDS011;10478;49.004;8.470;2023-01-24T23:40:13;19.92;;;9.45;;
20637;SDS011;10478;49.004;8.470;2023-01-24T23:42:40;22.70;;;10.18;;
20637;SDS011;10478;49.004;8.470;2023-01-24T23:45:05;19.63;;;9.75;;
20637;SDS011;10478;49.004;8.470;2023-01-24T23:47:31;20.23;;;9.95;;
20637;SDS011;10478;49.004;8.470;2023-01-24T23:49:57;20.58;;;9.68;;
20637;SDS011;10478;49.004;8.470;2023-01-24T23:52:41;21.17;;;9.52;;
20637;SDS011;10478;49.004;8.470;2023-01-24T23:55:06;21.00;;;10.20;;
20637;SDS011;10478;49.004;8.470;2023-01-24T23:57:32;19.63;;;9.20;;
20637;SDS011;10478;49.004;8.470;2023-01-24T23:59:57;20.38;;;9.93;;
